sensor_id;sensor_type;location;lat;lon;timestamp;pressure;altitude;pressure_sealevel;temperature;humidity
6144;BME280;3103;49.492;8.474;2023-02-23T00:01:50;100187.44;;;11.23;90.57
6144;BME280;3103;49.492;8.474;2023-02-23T00:04:16;100186.22;;;11.30;90.90
6144;BME280;3103;49.492;8.474;2023-02-23T00:06:44;100186.13;;;11.25;90.59
6144;BME280;3103;49.492;8.474;2023-02-23T00:09:11;100187.06;;;11.36;90.55
6144;BME280;3103;49.492;8.474;2023-02-23T00:11:55;100188.09;;;11.30;90.52
6144;BME280;3103;49.492;8.474;2023-02-23T00:14:27;100193.72;;;11.28;90.94
6144;BME280;3103;49.492;8.474;2023-02-23T00:16:54;100180.44;;;11.22;90.74
6144;BME280;3103;49.492;8.474;2023-02-23T00:19:22;100183.38;;;11.20;91.06
6144;BME280;3103;49.492;8.474;2023-02-23T00:21:50;100180.91;;;11.14;91.25
6144;BME280;3103;49.492;8.474;2023-02-23T00:24:17;100177.88;;;11.10;91.16
6144;BME280;3103;49.492;8.474;2023-02-23T00:26:47;100177.25;;;11.03;91.38
6144;BME280;3103;49.492;8.474;2023-02-23T00:29:19;100184.50;;;11.03;92.22
6144;BME280;3103;49.492;8.474;2023-02-23T00:31:47;100184.66;;;10.96;92.21
6144;BME280;3103;49.492;8.474;2023-02-23T00:34:16;100178.22;;;10.97;92.11
6144;BME280;3103;49.492;8.474;2023-02-23T00:36:52;100183.59;;;10.97;92.31
6144;BME280;3103;49.492;8.474;2023-02-23T00:39:21;100175.78;;;10.95;92.41
6144;BME280;3103;49.492;8.474;2023-02-23T00:41:53;100177.41;;;10.96;92.31
6144;BME280;3103;49.492;8.474;2023-02-23T00:44:22;100176.28;;;10.92;92.69
6144;BME280;3103;49.492;8.474;2023-02-23T00:46:49;100175.97;;;10.89;92.68
6144;BME280;3103;49.492;8.474;2023-02-23T00:49:18;100175.47;;;10.92;92.72
6144;BME280;3103;49.492;8.474;2023-02-23T00:51:46;100172.72;;;10.87;92.67
6144;BME280;3103;49.492;8.474;2023-02-23T00:54:14;100176.63;;;10.79;93.14
6144;BME280;3103;49.492;8.474;2023-02-23T00:56:41;100167.78;;;10.79;93.49
6144;BME280;3103;49.492;8.474;2023-02-23T00:59:08;100177.56;;;10.85;93.23
6144;BME280;3103;49.492;8.474;2023-02-23T01:01:35;100173.72;;;10.81;93.66
6144;BME280;3103;49.492;8.474;2023-02-23T01:04:04;100175.34;;;10.82;93.73
6144;BME280;3103;49.492;8.474;2023-02-23T01:06:33;100170.78;;;10.82;94.70
6144;BME280;3103;49.492;8.474;2023-02-23T01:09:10;100171.78;;;10.76;94.93
6144;BME280;3103;49.492;8.474;2023-02-23T01:11:37;100178.78;;;10.77;95.06
6144;BME280;3103;49.492;8.474;2023-02-23T01:14:04;100179.09;;;10.81;95.88
6144;BME280;3103;49.492;8.474;2023-02-23T01:16:32;100178.84;;;10.82;95.60
6144;BME280;3103;49.492;8.474;2023-02-23T01:19:01;100175.16;;;10.88;96.00
6144;BME280;3103;49.492;8.474;2023-02-23T01:21:34;100174.09;;;10.89;95.87
6144;BME280;3103;49.492;8.474;2023-02-23T01:24:02;100164.84;;;10.80;94.58
6144;BME280;3103;49.492;8.474;2023-02-23T01:26:31;100172.97;;;10.85;94.71
6144;BME280;3103;49.492;8.474;2023-02-23T01:29:07;100167.81;;;10.84;93.92
6144;BME280;3103;49.492;8.474;2023-02-23T01:31:37;100171.03;;;10.81;94.54
6144;BME280;3103;49.492;8.474;2023-02-23T01:34:05;100174.50;;;10.81;95.29
6144;BME280;3103;49.492;8.474;2023-02-23T01:36:37;100173.28;;;10.89;95.81
6144;BME280;3103;49.492;8.474;2023-02-23T01:39:06;100172.38;;;11.00;94.14
6144;BME280;3103;49.492;8.474;2023-02-23T01:41:35;100178.47;;;10.95;94.89
6144;BME280;3103;49.492;8.474;2023-02-23T01:44:06;100173.66;;;10.97;94.94
6144;BME280;3103;49.492;8.474;2023-02-23T01:46:36;100173.28;;;10.89;95.51
6144;BME280;3103;49.492;8.474;2023-02-23T01:49:07;100173.44;;;10.99;95.48
6144;BME280;3103;49.492;8.474;2023-02-23T01:51:40;100169.59;;;10.95;95.05
6144;BME280;3103;49.492;8.474;2023-02-23T01:54:13;100164.72;;;10.92;96.13
6144;BME280;3103;49.492;8.474;2023-02-23T01:56:44;100159.50;;;11.02;95.30
6144;BME280;3103;49.492;8.474;2023-02-23T01:59:15;100160.41;;;10.91;95.84
6144;BME280;3103;49.492;8.474;2023-02-23T02:01:43;100159.75;;;11.00;95.49
6144;BME280;3103;49.492;8.474;2023-02-23T02:04:11;100156.72;;;10.97;95.90
6144;BME280;3103;49.492;8.474;2023-02-23T02:06:43;100161.94;;;11.04;94.75
6144;BME280;3103;49.492;8.474;2023-02-23T02:09:14;100158.38;;;10.98;95.72
6144;BME280;3103;49.492;8.474;2023-02-23T02:11:45;100158.38;;;10.98;96.64
6144;BME280;3103;49.492;8.474;2023-02-23T02:14:28;100157.72;;;10.91;97.26
6144;BME280;3103;49.492;8.474;2023-02-23T02:17:17;100154.84;;;10.76;97.57
6144;BME280;3103;49.492;8.474;2023-02-23T02:20:04;100156.22;;;10.78;97.82
6144;BME280;3103;49.492;8.474;2023-02-23T02:26:01;100145.50;;;11.00;96.46
6144;BME280;3103;49.492;8.474;2023-02-23T02:35:16;100149.91;;;10.89;98.08
6144;BME280;3103;49.492;8.474;2023-02-23T02:37:44;100139.91;;;10.85;98.37
6144;BME280;3103;49.492;8.474;2023-02-23T02:40:26;100140.72;;;10.85;98.47
6144;BME280;3103;49.492;8.474;2023-02-23T02:43:08;100134.09;;;10.93;97.12
6144;BME280;3103;49.492;8.474;2023-02-23T02:45:40;100139.41;;;10.88;97.67
6144;BME280;3103;49.492;8.474;2023-02-23T02:48:16;100133.41;;;10.81;98.45
6144;BME280;3103;49.492;8.474;2023-02-23T02:50:52;100139.66;;;10.86;97.57
6144;BME280;3103;49.492;8.474;2023-02-23T02:53:50;100138.78;;;10.81;98.66
6144;BME280;3103;49.492;8.474;2023-02-23T02:56:24;100132.41;;;10.87;98.92
6144;BME280;3103;49.492;8.474;2023-02-23T02:58:53;100128.97;;;10.91;97.82
6144;BME280;3103;49.492;8.474;2023-02-23T03:01:20;100130.66;;;10.97;97.28
6144;BME280;3103;49.492;8.474;2023-02-23T03:04:35;100123.72;;;10.80;99.03
6144;BME280;3103;49.492;8.474;2023-02-23T03:07:28;100130.44;;;10.99;99.36
6144;BME280;3103;49.492;8.474;2023-02-23T03:16:42;100123.50;;;11.03;98.55
6144;BME280;3103;49.492;8.474;2023-02-23T03:19:39;100125.28;;;10.97;99.34
6144;BME280;3103;49.492;8.474;2023-02-23T03:22:34;100127.59;;;10.89;99.77
6144;BME280;3103;49.492;8.474;2023-02-23T03:28:24;100118.09;;;10.81;100.00
6144;BME280;3103;49.492;8.474;2023-02-23T03:31:20;100123.22;;;10.83;100.00
6144;BME280;3103;49.492;8.474;2023-02-23T03:34:16;100122.72;;;10.86;100.00
6144;BME280;3103;49.492;8.474;2023-02-23T03:37:11;100127.47;;;10.79;100.00
6144;BME280;3103;49.492;8.474;2023-02-23T03:40:05;100128.03;;;10.81;100.00
6144;BME280;3103;49.492;8.474;2023-02-23T03:42:53;100125.78;;;10.73;100.00
6144;BME280;3103;49.492;8.474;2023-02-23T03:45:43;100133.16;;;10.82;100.00
6144;BME280;3103;49.492;8.474;2023-02-23T03:48:33;100130.78;;;10.86;100.00
6144;BME280;3103;49.492;8.474;2023-02-23T03:51:21;100131.09;;;10.89;100.00
6144;BME280;3103;49.492;8.474;2023-02-23T03:54:16;100131.28;;;10.83;100.00
6144;BME280;3103;49.492;8.474;2023-02-23T03:57:04;100130.47;;;10.82;100.00
6144;BME280;3103;49.492;8.474;2023-02-23T03:59:56;100127.59;;;10.89;100.00
6144;BME280;3103;49.492;8.474;2023-02-23T04:02:47;100129.84;;;10.97;100.00
6144;BME280;3103;49.492;8.474;2023-02-23T04:05:37;100125.69;;;10.84;100.00
6144;BME280;3103;49.492;8.474;2023-02-23T04:08:30;100129.66;;;10.82;100.00
6144;BME280;3103;49.492;8.474;2023-02-23T04:11:41;100134.34;;;10.91;100.00
6144;BME280;3103;49.492;8.474;2023-02-23T04:14:39;100134.81;;;11.05;99.66
6144;BME280;3103;49.492;8.474;2023-02-23T04:17:08;100138.81;;;11.03;100.00
6144;BME280;3103;49.492;8.474;2023-02-23T04:19:35;100139.69;;;10.69;100.00
6144;BME280;3103;49.492;8.474;2023-02-23T04:22:02;100138.81;;;10.64;100.00
6144;BME280;3103;49.492;8.474;2023-02-23T04:24:29;100132.31;;;10.26;100.00
6144;BME280;3103;49.492;8.474;2023-02-23T04:26:55;100134.84;;;10.50;100.00
6144;BME280;3103;49.492;8.474;2023-02-23T04:29:22;100134.34;;;10.53;100.00
6144;BME280;3103;49.492;8.474;2023-02-23T04:31:49;100136.84;;;10.76;100.00
6144;BME280;3103;49.492;8.474;2023-02-23T04:34:16;100141.91;;;10.73;100.00
6144;BME280;3103;49.492;8.474;2023-02-23T04:36:43;100138.72;;;10.76;100.00
6144;BME280;3103;49.492;8.474;2023-02-23T04:39:09;100138.03;;;10.85;100.00
6144;BME280;3103;49.492;8.474;2023-02-23T04:41:36;100140.28;;;10.38;100.00
6144;BME280;3103;49.492;8.474;2023-02-23T04:44:03;100145.75;;;10.60;100.00
6144;BME280;3103;49.492;8.474;2023-02-23T04:46:30;100139.00;;;10.40;100.00
6144;BME280;3103;49.492;8.474;2023-02-23T04:48:57;100140.19;;;10.66;100.00
6144;BME280;3103;49.492;8.474;2023-02-23T04:51:23;100150.13;;;10.66;100.00
6144;BME280;3103;49.492;8.474;2023-02-23T04:53:55;100146.84;;;10.81;100.00
6144;BME280;3103;49.492;8.474;2023-02-23T04:56:22;100146.38;;;10.67;100.00
6144;BME280;3103;49.492;8.474;2023-02-23T04:58:48;100142.31;;;10.64;100.00
6144;BME280;3103;49.492;8.474;2023-02-23T05:01:16;100154.28;;;10.74;100.00
6144;BME280;3103;49.492;8.474;2023-02-23T05:03:43;100159.34;;;10.92;100.00
6144;BME280;3103;49.492;8.474;2023-02-23T05:06:10;100156.09;;;10.90;100.00
6144;BME280;3103;49.492;8.474;2023-02-23T05:08:38;100147.09;;;10.79;100.00
6144;BME280;3103;49.492;8.474;2023-02-23T05:11:05;100155.25;;;10.67;100.00
6144;BME280;3103;49.492;8.474;2023-02-23T05:13:33;100153.31;;;10.63;100.00
6144;BME280;3103;49.492;8.474;2023-02-23T05:15:59;100147.78;;;10.53;100.00
6144;BME280;3103;49.492;8.474;2023-02-23T05:18:26;100146.16;;;10.52;100.00
6144;BME280;3103;49.492;8.474;2023-02-23T05:21:00;100148.03;;;10.51;100.00
6144;BME280;3103;49.492;8.474;2023-02-23T05:23:27;100145.59;;;10.33;100.00
6144;BME280;3103;49.492;8.474;2023-02-23T05:25:59;100148.69;;;10.42;100.00
6144;BME280;3103;49.492;8.474;2023-02-23T05:28:26;100146.66;;;10.49;100.00
6144;BME280;3103;49.492;8.474;2023-02-23T05:30:53;100142.66;;;10.51;100.00
6144;BME280;3103;49.492;8.474;2023-02-23T05:33:20;100143.91;;;10.44;100.00
6144;BME280;3103;49.492;8.474;2023-02-23T05:35:47;100140.78;;;10.35;100.00
6144;BME280;3103;49.492;8.474;2023-02-23T05:38:14;100146.22;;;10.40;100.00
6144;BME280;3103;49.492;8.474;2023-02-23T05:40:41;100142.66;;;10.34;100.00
6144;BME280;3103;49.492;8.474;2023-02-23T05:43:07;100146.91;;;10.30;100.00
6144;BME280;3103;49.492;8.474;2023-02-23T05:45:39;100146.72;;;10.37;100.00
6144;BME280;3103;49.492;8.474;2023-02-23T05:48:06;100148.69;;;10.42;100.00
6144;BME280;3103;49.492;8.474;2023-02-23T05:50:33;100149.50;;;10.42;100.00
6144;BME280;3103;49.492;8.474;2023-02-23T05:53:00;100156.97;;;10.40;100.00
6144;BME280;3103;49.492;8.474;2023-02-23T05:55:27;100150.47;;;10.36;100.00
6144;BME280;3103;49.492;8.474;2023-02-23T05:57:54;100152.03;;;10.32;100.00
6144;BME280;3103;49.492;8.474;2023-02-23T06:00:21;100156.56;;;10.48;100.00
6144;BME280;3103;49.492;8.474;2023-02-23T06:02:48;100151.75;;;10.50;100.00
6144;BME280;3103;49.492;8.474;2023-02-23T06:05:18;100151.44;;;10.47;100.00
6144;BME280;3103;49.492;8.474;2023-02-23T06:07:44;100152.25;;;10.47;100.00
6144;BME280;3103;49.492;8.474;2023-02-23T06:10:12;100152.75;;;10.44;100.00
6144;BME280;3103;49.492;8.474;2023-02-23T06:12:39;100153.56;;;10.45;100.00
6144;BME280;3103;49.492;8.474;2023-02-23T06:15:06;100150.88;;;10.45;100.00
6144;BME280;3103;49.492;8.474;2023-02-23T06:17:34;100162.34;;;10.40;100.00
6144;BME280;3103;49.492;8.474;2023-02-23T06:20:02;100161.88;;;10.43;100.00
6144;BME280;3103;49.492;8.474;2023-02-23T06:22:30;100166.44;;;10.43;100.00
6144;BME280;3103;49.492;8.474;2023-02-23T06:24:57;100163.47;;;10.27;100.00
6144;BME280;3103;49.492;8.474;2023-02-23T06:27:23;100161.72;;;10.33;100.00
6144;BME280;3103;49.492;8.474;2023-02-23T06:29:51;100165.44;;;10.32;100.00
6144;BME280;3103;49.492;8.474;2023-02-23T06:32:18;100168.28;;;10.59;100.00
6144;BME280;3103;49.492;8.474;2023-02-23T06:34:49;100174.31;;;10.66;100.00
6144;BME280;3103;49.492;8.474;2023-02-23T06:37:16;100172.69;;;10.48;100.00
6144;BME280;3103;49.492;8.474;2023-02-23T06:39:43;100179.75;;;10.54;100.00
6144;BME280;3103;49.492;8.474;2023-02-23T06:42:10;100178.88;;;10.49;100.00
6144;BME280;3103;49.492;8.474;2023-02-23T06:44:36;100179.75;;;10.54;100.00
6144;BME280;3103;49.492;8.474;2023-02-23T06:47:03;100175.28;;;10.60;100.00
6144;BME280;3103;49.492;8.474;2023-02-23T06:49:31;100185.78;;;10.61;100.00
6144;BME280;3103;49.492;8.474;2023-02-23T06:51:58;100183.16;;;10.66;100.00
6144;BME280;3103;49.492;8.474;2023-02-23T06:54:25;100182.91;;;10.68;100.00
6144;BME280;3103;49.492;8.474;2023-02-23T06:56:52;100188.88;;;10.70;100.00
6144;BME280;3103;49.492;8.474;2023-02-23T06:59:22;100193.97;;;10.88;100.00
6144;BME280;3103;49.492;8.474;2023-02-23T07:01:49;100196.34;;;10.85;100.00
6144;BME280;3103;49.492;8.474;2023-02-23T07:04:16;100199.03;;;10.68;100.00
6144;BME280;3103;49.492;8.474;2023-02-23T07:06:43;100200.75;;;10.74;100.00
6144;BME280;3103;49.492;8.474;2023-02-23T07:09:10;100201.25;;;10.71;100.00
6144;BME280;3103;49.492;8.474;2023-02-23T07:11:36;100203.84;;;10.83;100.00
6144;BME280;3103;49.492;8.474;2023-02-23T07:14:03;100203.00;;;10.82;100.00
6144;BME280;3103;49.492;8.474;2023-02-23T07:16:30;100205.63;;;10.77;100.00
6144;BME280;3103;49.492;8.474;2023-02-23T07:18:57;100205.63;;;10.77;100.00
6144;BME280;3103;49.492;8.474;2023-02-23T07:21:24;100211.06;;;10.82;100.00
6144;BME280;3103;49.492;8.474;2023-02-23T07:23:51;100214.25;;;10.79;100.00
6144;BME280;3103;49.492;8.474;2023-02-23T07:26:17;100216.25;;;11.06;100.00
6144;BME280;3103;49.492;8.474;2023-02-23T07:28:44;100213.53;;;11.00;100.00
6144;BME280;3103;49.492;8.474;2023-02-23T07:31:11;100223.13;;;10.96;100.00
6144;BME280;3103;49.492;8.474;2023-02-23T07:33:37;100221.50;;;10.95;100.00
6144;BME280;3103;49.492;8.474;2023-02-23T07:36:04;100221.25;;;10.97;100.00
6144;BME280;3103;49.492;8.474;2023-02-23T07:38:31;100225.50;;;10.93;100.00
6144;BME280;3103;49.492;8.474;2023-02-23T07:40:58;100219.38;;;10.81;100.00
6144;BME280;3103;49.492;8.474;2023-02-23T07:43:25;100225.03;;;10.62;100.00
6144;BME280;3103;49.492;8.474;2023-02-23T07:45:51;100215.59;;;10.43;100.00
6144;BME280;3103;49.492;8.474;2023-02-23T07:48:19;100223.09;;;10.58;100.00
6144;BME280;3103;49.492;8.474;2023-02-23T07:50:46;100219.41;;;10.64;100.00
6144;BME280;3103;49.492;8.474;2023-02-23T07:53:13;100219.34;;;10.59;100.00
6144;BME280;3103;49.492;8.474;2023-02-23T07:55:40;100224.38;;;10.55;100.00
6144;BME280;3103;49.492;8.474;2023-02-23T07:58:07;100226.16;;;10.66;100.00
6144;BME280;3103;49.492;8.474;2023-02-23T08:00:35;100221.94;;;10.70;100.00
6144;BME280;3103;49.492;8.474;2023-02-23T08:03:02;100223.88;;;10.75;100.00
6144;BME280;3103;49.492;8.474;2023-02-23T08:05:29;100228.59;;;10.68;100.00
6144;BME280;3103;49.492;8.474;2023-02-23T08:07:57;100226.97;;;10.50;100.00
6144;BME280;3103;49.492;8.474;2023-02-23T08:10:24;100233.41;;;10.66;100.00
6144;BME280;3103;49.492;8.474;2023-02-23T08:12:51;100232.34;;;10.67;100.00
6144;BME280;3103;49.492;8.474;2023-02-23T08:15:18;100233.91;;;10.63;100.00
6144;BME280;3103;49.492;8.474;2023-02-23T08:17:44;100239.44;;;10.56;100.00
6144;BME280;3103;49.492;8.474;2023-02-23T08:20:11;100243.03;;;10.62;100.00
6144;BME280;3103;49.492;8.474;2023-02-23T08:22:38;100242.84;;;10.68;100.00
6144;BME280;3103;49.492;8.474;2023-02-23T08:25:16;100246.34;;;10.69;100.00
6144;BME280;3103;49.492;8.474;2023-02-23T08:27:42;100242.94;;;10.74;100.00
6144;BME280;3103;49.492;8.474;2023-02-23T08:30:10;100238.38;;;10.74;100.00
6144;BME280;3103;49.492;8.474;2023-02-23T08:32:37;100245.53;;;10.68;100.00
6144;BME280;3103;49.492;8.474;2023-02-23T08:35:04;100242.38;;;10.72;100.00
6144;BME280;3103;49.492;8.474;2023-02-23T08:37:31;100245.22;;;10.82;100.00
6144;BME280;3103;49.492;8.474;2023-02-23T08:39:58;100243.19;;;10.89;100.00
6144;BME280;3103;49.492;8.474;2023-02-23T08:42:26;100251.41;;;10.99;100.00
6144;BME280;3103;49.492;8.474;2023-02-23T08:44:53;100249.34;;;11.06;100.00
6144;BME280;3103;49.492;8.474;2023-02-23T08:47:20;100248.59;;;11.11;100.00
6144;BME280;3103;49.492;8.474;2023-02-23T08:49:49;100249.06;;;11.24;100.00
6144;BME280;3103;49.492;8.474;2023-02-23T08:52:16;100253.97;;;11.27;100.00
6144;BME280;3103;49.492;8.474;2023-02-23T08:54:43;100251.94;;;11.18;99.61
6144;BME280;3103;49.492;8.474;2023-02-23T08:57:10;100248.84;;;11.09;100.00
6144;BME280;3103;49.492;8.474;2023-02-23T08:59:38;100252.81;;;11.23;100.00
6144;BME280;3103;49.492;8.474;2023-02-23T09:02:11;100248.59;;;11.71;98.39
6144;BME280;3103;49.492;8.474;2023-02-23T09:04:38;100252.44;;;11.97;96.89
6144;BME280;3103;49.492;8.474;2023-02-23T09:07:09;100253.72;;;12.22;93.00
6144;BME280;3103;49.492;8.474;2023-02-23T09:09:38;100251.00;;;12.43;90.27
6144;BME280;3103;49.492;8.474;2023-02-23T09:12:05;100250.75;;;12.50;89.70
6144;BME280;3103;49.492;8.474;2023-02-23T09:14:32;100250.72;;;12.45;88.61
6144;BME280;3103;49.492;8.474;2023-02-23T09:16:58;100262.19;;;12.30;89.44
6144;BME280;3103;49.492;8.474;2023-02-23T09:19:25;100257.59;;;12.31;90.02
6144;BME280;3103;49.492;8.474;2023-02-23T09:21:53;100254.66;;;12.05;89.19
6144;BME280;3103;49.492;8.474;2023-02-23T09:24:20;100251.66;;;12.02;88.60
6144;BME280;3103;49.492;8.474;2023-02-23T09:26:48;100251.19;;;12.10;87.91
6144;BME280;3103;49.492;8.474;2023-02-23T09:29:15;100250.19;;;12.43;85.13
6144;BME280;3103;49.492;8.474;2023-02-23T09:31:41;100259.28;;;12.69;83.54
6144;BME280;3103;49.492;8.474;2023-02-23T09:34:09;100265.94;;;13.30;80.93
6144;BME280;3103;49.492;8.474;2023-02-23T09:36:38;100265.22;;;14.23;76.84
6144;BME280;3103;49.492;8.474;2023-02-23T09:39:04;100269.31;;;14.46;73.14
6144;BME280;3103;49.492;8.474;2023-02-23T09:44:47;100270.44;;;14.65;73.61
6144;BME280;3103;49.492;8.474;2023-02-23T09:50:19;100276.63;;;14.76;72.01
6144;BME280;3103;49.492;8.474;2023-02-23T09:52:54;100269.56;;;14.39;72.40
6144;BME280;3103;49.492;8.474;2023-02-23T09:55:24;100277.63;;;14.19;72.55
6144;BME280;3103;49.492;8.474;2023-02-23T09:57:52;100264.63;;;14.01;72.53
6144;BME280;3103;49.492;8.474;2023-02-23T10:00:24;100268.78;;;13.56;72.66
6144;BME280;3103;49.492;8.474;2023-02-23T10:03:05;100268.91;;;13.29;74.70
6144;BME280;3103;49.492;8.474;2023-02-23T10:05:39;100270.50;;;13.25;76.47
6144;BME280;3103;49.492;8.474;2023-02-23T10:08:24;100270.41;;;13.15;76.87
6144;BME280;3103;49.492;8.474;2023-02-23T10:13:47;100278.31;;;12.89;76.75
6144;BME280;3103;49.492;8.474;2023-02-23T10:16:33;100276.13;;;12.86;76.32
6144;BME280;3103;49.492;8.474;2023-02-23T10:19:26;100277.59;;;13.04;76.60
6144;BME280;3103;49.492;8.474;2023-02-23T10:22:01;100276.16;;;12.91;76.84
6144;BME280;3103;49.492;8.474;2023-02-23T10:24:34;100285.84;;;12.87;76.90
6144;BME280;3103;49.492;8.474;2023-02-23T10:27:07;100281.41;;;12.71;77.96
6144;BME280;3103;49.492;8.474;2023-02-23T10:29:41;100281.97;;;12.73;77.32
6144;BME280;3103;49.492;8.474;2023-02-23T10:32:19;100281.34;;;12.66;77.87
6144;BME280;3103;49.492;8.474;2023-02-23T10:34:52;100280.44;;;12.82;77.50
6144;BME280;3103;49.492;8.474;2023-02-23T10:37:20;100282.69;;;12.95;77.62
6144;BME280;3103;49.492;8.474;2023-02-23T10:39:47;100281.56;;;13.23;77.27
6144;BME280;3103;49.492;8.474;2023-02-23T10:42:19;100281.59;;;13.33;75.54
6144;BME280;3103;49.492;8.474;2023-02-23T10:44:47;100295.19;;;13.49;73.82
6144;BME280;3103;49.492;8.474;2023-02-23T10:47:20;100292.03;;;13.20;74.33
6144;BME280;3103;49.492;8.474;2023-02-23T10:49:50;100293.41;;;13.22;74.41
6144;BME280;3103;49.492;8.474;2023-02-23T10:52:21;100290.97;;;13.21;74.68
6144;BME280;3103;49.492;8.474;2023-02-23T10:54:53;100287.81;;;13.34;74.16
6144;BME280;3103;49.492;8.474;2023-02-23T10:57:25;100290.28;;;13.41;74.23
6144;BME280;3103;49.492;8.474;2023-02-23T11:02:46;100290.31;;;14.13;73.02
6144;BME280;3103;49.492;8.474;2023-02-23T11:05:43;100290.44;;;14.79;70.77
6144;BME280;3103;49.492;8.474;2023-02-23T11:08:22;100287.97;;;15.13;68.67
6144;BME280;3103;49.492;8.474;2023-02-23T11:11:00;100289.63;;;15.09;66.95
6144;BME280;3103;49.492;8.474;2023-02-23T11:13:34;100288.53;;;14.90;66.28
6144;BME280;3103;49.492;8.474;2023-02-23T11:16:04;100292.84;;;14.76;67.83
6144;BME280;3103;49.492;8.474;2023-02-23T11:18:32;100277.97;;;15.09;66.73
6144;BME280;3103;49.492;8.474;2023-02-23T11:20:59;100272.31;;;14.95;66.64
6144;BME280;3103;49.492;8.474;2023-02-23T11:23:33;100275.03;;;14.70;67.56
6144;BME280;3103;49.492;8.474;2023-02-23T11:26:03;100278.00;;;14.68;67.28
6144;BME280;3103;49.492;8.474;2023-02-23T11:28:41;100275.81;;;14.60;67.58
6144;BME280;3103;49.492;8.474;2023-02-23T11:31:18;100270.66;;;14.48;68.04
6144;BME280;3103;49.492;8.474;2023-02-23T11:33:46;100274.13;;;14.34;68.52
6144;BME280;3103;49.492;8.474;2023-02-23T11:36:15;100271.47;;;14.49;68.21
6144;BME280;3103;49.492;8.474;2023-02-23T11:38:45;100265.56;;;14.52;67.30
6144;BME280;3103;49.492;8.474;2023-02-23T11:41:21;100265.28;;;14.74;66.88
6144;BME280;3103;49.492;8.474;2023-02-23T11:43:58;100263.91;;;14.76;66.96
6144;BME280;3103;49.492;8.474;2023-02-23T11:46:31;100259.84;;;14.89;66.53
6144;BME280;3103;49.492;8.474;2023-02-23T11:49:08;100262.78;;;15.18;65.46
6144;BME280;3103;49.492;8.474;2023-02-23T11:51:46;100257.94;;;15.20;64.86
6144;BME280;3103;49.492;8.474;2023-02-23T11:54:25;100252.28;;;14.91;64.18
6144;BME280;3103;49.492;8.474;2023-02-23T11:56:53;100247.69;;;15.07;64.67
6144;BME280;3103;49.492;8.474;2023-02-23T11:59:43;100253.56;;;15.29;63.62
6144;BME280;3103;49.492;8.474;2023-02-23T12:02:20;100247.53;;;15.48;63.40
6144;BME280;3103;49.492;8.474;2023-02-23T12:04:51;100245.59;;;15.73;63.36
6144;BME280;3103;49.492;8.474;2023-02-23T12:07:28;100248.03;;;15.70;63.52
6144;BME280;3103;49.492;8.474;2023-02-23T12:12:47;100233.72;;;15.54;62.49
6144;BME280;3103;49.492;8.474;2023-02-23T12:15:44;100228.72;;;15.02;63.13
6144;BME280;3103;49.492;8.474;2023-02-23T12:20:47;100233.91;;;14.93;65.25
6144;BME280;3103;49.492;8.474;2023-02-23T12:23:20;100228.78;;;14.66;65.14
6144;BME280;3103;49.492;8.474;2023-02-23T12:25:57;100227.44;;;14.59;65.69
6144;BME280;3103;49.492;8.474;2023-02-23T12:28:38;100232.00;;;14.48;65.96
6144;BME280;3103;49.492;8.474;2023-02-23T12:31:22;100230.09;;;14.33;66.33
6144;BME280;3103;49.492;8.474;2023-02-23T12:33:56;100218.75;;;14.26;67.08
6144;BME280;3103;49.492;8.474;2023-02-23T12:36:32;100228.75;;;14.25;67.17
6144;BME280;3103;49.492;8.474;2023-02-23T12:39:37;100225.50;;;14.29;67.31
6144;BME280;3103;49.492;8.474;2023-02-23T12:44:57;100212.78;;;14.14;67.72
6144;BME280;3103;49.492;8.474;2023-02-23T12:47:34;100219.50;;;13.96;68.04
6144;BME280;3103;49.492;8.474;2023-02-23T12:52:49;100216.31;;;14.24;67.69
6144;BME280;3103;49.492;8.474;2023-02-23T12:55:20;100208.19;;;14.30;68.07
6144;BME280;3103;49.492;8.474;2023-02-23T12:58:05;100201.44;;;14.27;69.73
6144;BME280;3103;49.492;8.474;2023-02-23T13:00:57;100200.16;;;14.50;70.27
6144;BME280;3103;49.492;8.474;2023-02-23T13:12:28;100203.88;;;14.34;68.02
6144;BME280;3103;49.492;8.474;2023-02-23T13:15:29;100199.00;;;14.20;68.16
6144;BME280;3103;49.492;8.474;2023-02-23T13:18:21;100203.06;;;14.13;68.36
6144;BME280;3103;49.492;8.474;2023-02-23T13:21:36;100210.34;;;14.17;68.45
6144;BME280;3103;49.492;8.474;2023-02-23T13:24:09;100211.44;;;14.11;68.23
6144;BME280;3103;49.492;8.474;2023-02-23T13:26:58;100211.41;;;14.01;67.85
6144;BME280;3103;49.492;8.474;2023-02-23T13:29:35;100211.97;;;14.13;67.24
6144;BME280;3103;49.492;8.474;2023-02-23T13:32:07;100208.19;;;14.09;67.13
6144;BME280;3103;49.492;8.474;2023-02-23T13:34:41;100210.31;;;14.07;68.39
6144;BME280;3103;49.492;8.474;2023-02-23T13:37:11;100203.06;;;14.08;67.79
6144;BME280;3103;49.492;8.474;2023-02-23T13:42:35;100210.63;;;14.11;67.96
6144;BME280;3103;49.492;8.474;2023-02-23T13:50:25;100206.03;;;14.26;68.19
6144;BME280;3103;49.492;8.474;2023-02-23T13:53:00;100207.13;;;14.31;67.30
6144;BME280;3103;49.492;8.474;2023-02-23T13:55:36;100203.88;;;14.39;67.03
6144;BME280;3103;49.492;8.474;2023-02-23T13:58:26;100205.50;;;14.24;66.92
6144;BME280;3103;49.492;8.474;2023-02-23T14:01:14;100210.09;;;14.24;66.21
6144;BME280;3103;49.492;8.474;2023-02-23T14:04:02;100206.03;;;14.16;66.96
6144;BME280;3103;49.492;8.474;2023-02-23T14:06:32;100206.84;;;14.17;67.75
6144;BME280;3103;49.492;8.474;2023-02-23T14:09:07;100203.06;;;14.13;67.52
6144;BME280;3103;49.492;8.474;2023-02-23T14:11:50;100198.44;;;13.98;67.87
6144;BME280;3103;49.492;8.474;2023-02-23T14:19:41;100198.97;;;13.95;67.59
6144;BME280;3103;49.492;8.474;2023-02-23T14:22:14;100197.06;;;13.90;67.61
6144;BME280;3103;49.492;8.474;2023-02-23T14:24:44;100194.63;;;13.84;68.01
6144;BME280;3103;49.492;8.474;2023-02-23T14:27:35;100194.38;;;14.06;68.45
6144;BME280;3103;49.492;8.474;2023-02-23T14:32:40;100204.38;;;14.05;67.60
6144;BME280;3103;49.492;8.474;2023-02-23T14:38:42;100206.84;;;14.12;67.35
6144;BME280;3103;49.492;8.474;2023-02-23T14:40:52;100196.53;;;13.88;67.04
6144;BME280;3103;49.492;8.474;2023-02-23T14:46:11;100201.66;;;13.90;67.32
6144;BME280;3103;49.492;8.474;2023-02-23T14:48:42;100194.88;;;13.77;67.43
6144;BME280;3103;49.492;8.474;2023-02-23T14:51:22;100191.66;;;13.85;67.58